Latest Weather Observations for Clermont Airport

IDQ60801

Issued at 2:32 pm EST Saturday 1 October 2016 (issued every 30 minutes, with the page automatically refreshed every 10 minutes)

About weather observations | Map of weather stations | Latest weather observations for QLD | Other Formats
Station Details ID: 035124 Name: CLERMONT AIRPORT Lat: -22.78 Lon: 147.62 Height: 270.27 m
Data from the previous 72 hours. | See also: Recent months at Clermont Airport
Date/Time
EST
Temp
°C
App
Temp
°C
Dew
Point
°C
Rel
Hum
%
Delta-T
°C
Wind Press
QNH
hPa
Press
MSL
hPa
Rain since
9am
mm
Dir  Spd
km/h
Gust
km/h
Spd
kts
Gust
kts
01/02:30pm 29.1 24.1 -4.3 11 14.9 W 13 22 7 12 1013.5 1012.2 0.0
01/02:00pm 28.3 23.6 -4.9 11 14.5 NW 11 22 6 12 1014.2 1012.8 0.0
01/01:30pm 28.4 23.8 -3.7 12 14.4 WSW 11 22 6 12 1014.5 1013.1 0.0
01/01:00pm 27.8 22.8 -4.2 12 14.1 W 13 22 7 12 1014.9 1013.5 0.0
01/12:30pm 27.7 23.1 -4.3 12 14.1 W 11 22 6 12 1015.2 1013.8 0.0
01/12:00pm 27.0 22.7 -1.8 15 13.2 WNW 11 20 6 11 1015.8 1014.4 0.0
01/11:30am 26.4 22.0 -2.3 15 13.0 WSW 11 24 6 13 1016.3 1014.9 0.0
01/11:00am 24.6 21.2 -0.5 19 11.5 WNW 7 17 4 9 1016.7 1015.4 0.0
01/10:30am 23.7 20.5 0.7 22 10.8 W 7 17 4 9 1017.1 1015.8 0.0
01/10:00am 23.4 19.8 0.5 22 10.6 W 9 19 5 10 1017.2 1015.9 0.0
01/09:30am 21.6 19.0 3.3 30 8.9 NW 6 13 3 7 1017.2 1016.3 0.0
01/09:00am 20.4 16.7 2.3 30 8.5 SW 11 19 6 10 1017.4 1016.5 0.2
01/08:30am 19.2 16.5 3.8 36 7.4 SSW 7 13 4 7 1017.5 1016.6 0.2
01/08:00am 16.6 15.2 5.3 47 5.5 SW 2 7 1 4 1017.5 1016.6 0.2
01/07:30am 12.9 11.9 5.6 61 3.5 CALM 0 0 0 0 1016.9 1016.0 0.2
01/07:00am 8.7 7.5 4.5 75 1.9 CALM 0 2 0 1 1016.4 1015.5 0.2
01/06:30am 5.9 4.7 4.7 92 0.5 CALM 0 0 0 0 1016.1 1015.2 0.2
01/06:00am 3.7 1.6 1.9 88 0.7 N 2 6 1 3 1015.6 1014.6 0.2
01/05:30am 4.2 2.3 2.6 89 0.7 N 2 2 1 1 1014.8 1013.8 0.2
01/05:00am 4.2 2.5 2.1 86 0.8 CALM 0 2 0 1 1014.4 1013.4 0.2
01/04:30am 4.7 2.4 2.7 87 0.8 WNW 4 6 2 3 1013.9 1013.0 0.2
01/04:00am 4.8 2.9 3.0 88 0.7 N 2 4 1 2 1013.3 1012.4 0.2
01/03:30am 5.0 2.3 2.4 83 1.1 WSW 6 7 3 4 1013.1 1012.2 0.2
01/03:00am 5.5 3.2 2.5 81 1.2 W 4 6 2 3 1013.1 1012.2 0.2
01/02:30am 5.9 4.4 3.1 82 1.2 CALM 0 0 0 0 1013.0 1012.1 0.2
01/02:00am 6.9 5.4 3.0 76 1.7 CALM 0 0 0 0 1013.2 1012.3 0.2
01/01:30am 7.3 6.0 4.3 81 1.3 CALM 0 2 0 1 1013.3 1012.4 0.2
01/01:00am - - - - - N 4 4 2 2 1013.4 1012.5 0.2
01/12:30am 7.4 5.2 3.1 74 1.8 W 4 6 2 3 1013.0 1012.1 0.2
01/12:00am 8.4 5.8 3.3 70 2.2 W 6 6 3 3 1013.4 1012.5 0.2
 
Date/Time
EST
Temp
°C
App
Temp
°C
Dew
Point
°C
Rel
Hum
%
Delta-T
°C
Wind Press
QNH
hPa
Press
MSL
hPa
Rain since
9am
mm
Dir  Spd
km/h
Gust
km/h
Spd
kts
Gust
kts
30/11:30pm 9.8 7.6 3.5 65 2.8 W 4 4 2 2 1013.7 1012.8 0.2
30/11:00pm 11.9 9.6 2.9 54 4.0 WNW 4 6 2 3 1013.7 1012.8 0.2
30/10:30pm 11.3 8.7 3.1 57 3.6 WNW 6 6 3 3 1013.9 1013.0 0.2
30/10:00pm 11.1 8.8 2.9 57 3.6 SW 4 6 2 3 1013.7 1012.8 0.2
30/09:30pm 14.6 12.2 2.2 43 5.6 W 4 6 2 3 1013.9 1013.0 0.2
30/09:00pm 14.0 11.2 2.3 45 5.2 WNW 6 7 3 4 1013.7 1012.8 0.2
30/08:30pm 13.4 10.7 2.9 49 4.7 W 6 7 3 4 1013.4 1012.5 0.2
30/08:00pm 14.5 11.6 2.7 45 5.3 W 7 9 4 5 1013.0 1012.1 0.2
30/07:30pm 17.4 14.6 1.8 35 7.1 W 6 7 3 4 1012.5 1011.5 0.2
30/07:00pm 17.3 14.6 0.0 31 7.6 W 4 6 2 3 1011.9 1010.9 0.2
30/06:30pm 21.5 18.5 -1.7 21 10.2 WNW 4 6 2 3 1011.6 1010.6 0.2
30/06:00pm 23.5 20.1 -2.2 18 11.4 WNW 6 9 3 5 1011.1 1010.1 0.2
30/05:30pm 25.0 20.6 -2.5 16 12.2 WNW 11 17 6 9 1010.8 1009.8 0.2
30/05:00pm 25.8 21.0 -2.8 15 12.8 W 13 20 7 11 1010.5 1009.5 0.2
30/04:30pm 26.5 21.7 -2.2 15 13.0 W 13 32 7 17 1010.4 1009.4 0.2
30/04:00pm 26.2 20.7 -2.4 15 12.9 WNW 17 26 9 14 1010.3 1009.3 0.2
30/03:30pm 25.8 19.7 -3.7 14 12.9 W 19 32 10 17 1010.3 1009.3 0.2
30/03:00pm 26.0 20.6 -1.7 16 12.6 WNW 17 26 9 14 1010.3 1009.3 0.2
30/02:30pm 26.0 20.6 -1.7 16 12.6 WNW 17 28 9 15 1010.5 1009.5 0.2
30/02:00pm 24.9 19.8 -1.8 17 12.0 W 15 22 8 12 1010.9 1009.9 0.2
30/01:30pm 25.0 21.1 -1.7 17 12.1 W 9 19 5 10 1011.2 1010.2 0.2
30/01:00pm 23.7 19.4 -2.0 18 11.4 WSW 11 28 6 15 1011.6 1010.6 0.2
30/12:30pm 22.8 17.4 -1.3 20 10.8 W 17 32 9 17 1012.3 1011.3 0.2
30/12:00pm 22.4 17.0 -1.6 20 10.6 WSW 17 28 9 15 1012.9 1012.0 0.2
30/11:30am 20.8 15.9 -3.0 20 10.1 WSW 13 24 7 13 1013.6 1012.7 0.2
30/11:00am 20.9 15.8 -2.2 21 10.0 WSW 15 26 8 14 1013.9 1013.0 0.2
30/10:30am 20.0 15.1 -0.6 25 9.1 W 15 24 8 13 1014.0 1013.1 0.2
30/10:00am 19.5 14.6 -0.5 26 8.8 WSW 15 26 8 14 1014.3 1013.3 0.0
30/09:30am 18.8 14.1 0.9 30 8.1 WSW 15 22 8 12 1014.2 1013.2 0.0
30/09:00am 17.8 12.3 0.5 31 7.7 WSW 19 32 10 17 1014.0 1013.1 1.8
30/08:30am 17.5 13.9 2.7 37 6.9 WSW 11 24 6 13 1013.9 1013.0 1.8
30/08:00am 16.2 12.1 4.6 46 5.5 SW 15 20 8 11 1013.7 1012.8 1.8
30/07:30am 15.0 11.7 4.4 49 5.0 SW 11 17 6 9 1013.4 1012.5 1.8
30/07:00am 13.9 11.6 5.8 58 3.9 SW 7 13 4 7 1013.1 1012.2 1.8
30/06:30am 12.6 10.8 7.1 69 2.7 WSW 6 9 3 5 1012.7 1011.8 1.8
30/06:00am 10.4 9.7 8.7 89 0.8 WSW 2 4 1 2 1012.5 1011.5 1.8
30/05:30am 10.9 10.3 8.8 87 1.1 WNW 2 4 1 2 1012.0 1011.0 1.8
30/05:00am 11.9 11.4 9.3 84 1.3 WNW 2 4 1 2 1011.6 1010.6 1.8
30/04:30am 13.3 12.5 9.7 79 1.9 W 4 6 2 3 1011.2 1010.2 1.8
30/04:00am 13.6 12.7 10.8 83 1.5 WNW 6 7 3 4 1011.0 1010.0 1.8
30/03:30am 14.6 13.5 10.8 78 2.0 WNW 7 9 4 5 1010.8 1009.8 1.8
30/03:00am 15.0 14.7 11.6 80 1.9 WNW 4 6 2 3 1010.5 1009.5 1.8
30/02:30am 16.5 15.9 11.6 73 2.7 WSW 6 7 3 4 1010.9 1009.9 1.8
30/02:00am 17.7 16.3 12.2 70 3.1 WSW 11 15 6 8 1011.0 1010.0 1.8
30/01:30am 18.1 18.0 14.0 77 2.4 W 7 11 4 6 1010.9 1009.9 1.8
30/01:00am 18.7 19.0 15.0 79 2.2 WSW 7 11 4 6 1010.9 1009.9 1.8
30/12:30am 19.7 19.7 16.3 81 2.1 WSW 11 13 6 7 1010.9 1009.9 1.8
30/12:00am 19.3 21.0 18.1 93 0.7 W 6 9 3 5 1010.7 1009.7 1.8
 
Date/Time
EST
Temp
°C
App
Temp
°C
Dew
Point
°C
Rel
Hum
%
Delta-T
°C
Wind Press
QNH
hPa
Press
MSL
hPa
Rain since
9am
mm
Dir  Spd
km/h
Gust
km/h
Spd
kts
Gust
kts
29/11:30pm 19.3 21.0 18.1 93 0.7 WSW 6 6 3 3 1010.1 1009.2 1.8
29/11:00pm 19.8 21.7 18.6 93 0.8 NW 6 7 3 4 1010.0 1009.1 1.8
29/10:30pm 20.0 22.6 18.5 91 0.9 W 2 4 1 2 1009.9 1009.0 1.8
29/10:00pm 20.5 23.0 19.0 91 1.0 NNW 4 7 2 4 1009.7 1008.8 1.8
29/09:30pm 20.9 24.3 19.4 91 1.0 CALM 0 0 0 0 1009.6 1008.7 1.8
29/09:00pm 21.1 24.2 19.4 90 1.1 NNW 2 4 1 2 1009.3 1008.3 1.8
29/08:30pm 21.5 25.0 19.6 89 1.2 CALM 0 2 0 1 1008.9 1007.9 1.8
29/08:00pm 21.6 25.1 19.5 88 1.4 CALM 0 7 0 4 1008.9 1007.9 1.8
29/07:30pm 21.9 25.0 19.6 87 1.5 WNW 2 4 1 2 1008.4 1007.4 1.8
29/07:00pm 22.0 25.3 19.9 88 1.4 W 2 4 1 2 1008.1 1007.1 1.8
29/06:30pm 22.2 24.9 20.3 89 1.2 WSW 6 9 3 5 1007.6 1006.6 1.8
29/06:00pm 22.3 25.9 19.8 86 1.6 CALM 0 0 0 0 1007.1 1006.1 1.6
29/05:30pm 22.4 25.9 19.6 84 1.8 CALM 0 2 0 1 1006.8 1005.8 1.6
29/05:00pm 23.0 24.8 19.6 81 2.2 WNW 9 13 5 7 1006.5 1005.5 1.6
29/04:30pm 26.1 27.5 17.7 60 5.3 WNW 7 13 4 7 1006.1 1005.1 0.0
29/04:00pm 26.3 26.5 17.6 58 5.5 NW 13 20 7 11 1005.7 1004.7 0.0
29/03:30pm 26.1 26.5 18.2 61 5.1 NNW 13 17 7 9 1005.7 1004.7 0.0
29/03:00pm 26.2 26.7 18.3 61 5.1 NNW 13 17 7 9 1006.5 1005.5 0.0
29/02:30pm 26.4 26.9 18.3 61 5.2 NNW 13 20 7 11 1006.6 1005.6 0.0
29/02:00pm 25.7 24.9 17.9 62 5.0 NNW 19 28 10 15 1007.2 1006.2 0.0
29/01:30pm 26.5 25.3 18.4 61 5.2 NNW 22 33 12 18 1007.9 1006.9 0.0
29/01:00pm 24.8 22.8 17.5 64 4.6 NW 24 32 13 17 1008.5 1007.5 0.0
29/12:30pm 25.2 23.0 17.9 64 4.6 NNW 26 35 14 19 1008.6 1007.6 0.0
29/12:00pm 25.5 24.4 17.7 62 5.0 NNW 20 35 11 19 1009.0 1008.0 0.0
29/11:30am 24.8 22.4 17.3 63 4.7 NNW 26 39 14 21 1009.4 1008.4 0.0
29/11:00am 24.9 23.3 17.4 63 4.7 N 22 37 12 20 1009.6 1008.7 0.0
29/10:30am 23.9 21.1 17.4 67 4.1 NNW 28 41 15 22 1010.1 1009.2 0.0
29/10:00am 22.6 21.4 17.1 71 3.4 NNW 19 30 10 16 1010.5 1009.5 0.0
29/09:30am 21.8 20.5 16.7 73 3.1 N 19 35 10 19 1010.6 1009.6 0.0
29/09:00am 21.1 19.0 16.3 74 2.9 N 22 35 12 19 1010.7 1009.7 0.0
29/08:30am 20.3 18.6 15.7 75 2.8 N 19 32 10 17 1010.9 1009.9 0.0
29/08:00am 20.3 18.5 15.5 74 2.9 N 19 32 10 17 1011.2 1010.2 0.0
29/07:30am 19.4 18.1 14.9 75 2.7 N 15 28 8 15 1010.7 1009.7 0.0
29/07:00am 18.6 17.4 13.9 74 2.7 NNW 13 20 7 11 1010.6 1009.6 0.0
29/06:30am 17.9 16.1 13.4 75 2.6 N 15 22 8 12 1010.0 1009.1 0.0
29/06:00am 18.0 15.4 13.3 74 2.7 N 19 26 10 14 1009.9 1009.0 0.0
29/05:30am 17.9 15.2 13.6 76 2.5 N 20 32 11 17 1009.8 1008.9 0.0
29/05:00am 19.1 16.3 11.4 61 4.3 N 17 26 9 14 1009.9 1009.0 0.0
29/04:30am 19.0 17.0 10.0 56 4.9 NNE 11 19 6 10 1009.8 1008.9 0.0
29/04:00am 18.8 19.0 10.4 58 4.6 CALM 0 0 0 0 1011.5 1010.5 0.0
29/03:30am 19.5 18.9 8.8 50 5.7 WNW 2 4 1 2 1011.9 1010.9 0.0
29/03:00am 19.4 19.0 8.1 48 5.9 CALM 0 0 0 0 1011.4 1010.4 0.0
29/02:30am 19.7 18.9 8.1 47 6.1 ESE 2 6 1 3 1011.3 1010.3 0.0
29/02:00am 20.1 18.8 7.8 45 6.4 ESE 4 4 2 2 1011.8 1010.8 0.0
29/01:30am 20.4 19.5 7.7 44 6.6 ESE 2 4 1 2 1012.1 1011.1 0.0
29/01:00am 20.2 19.7 7.9 45 6.4 CALM 0 2 0 1 1012.1 1011.1 0.0
29/12:30am 20.4 19.4 7.4 43 6.7 ENE 2 6 1 3 1012.5 1011.5 0.0
29/12:00am 21.3 19.7 7.9 42 7.1 NE 6 9 3 5 1012.9 1012.0 0.0
 
Date/Time
EST
Temp
°C
App
Temp
°C
Dew
Point
°C
Rel
Hum
%
Delta-T
°C
Wind Press
QNH
hPa
Press
MSL
hPa
Rain since
9am
mm
Dir  Spd
km/h
Gust
km/h
Spd
kts
Gust
kts
28/11:30pm 21.7 21.1 7.5 40 7.4 CALM 0 0 0 0 1013.2 1012.3 0.0
28/11:00pm 21.9 20.1 7.3 39 7.6 NE 6 11 3 6 1012.9 1012.0 0.0
28/10:30pm 22.2 20.5 7.6 39 7.7 NE 6 11 3 6 1012.7 1011.8 0.0
28/10:00pm 22.5 20.1 7.1 37 8.1 NE 9 17 5 9 1012.9 1012.0 0.0
28/09:30pm 23.1 20.5 6.0 33 8.8 NNE 9 15 5 8 1012.7 1011.8 0.0
28/09:00pm 23.5 20.0 5.4 31 9.2 NNE 13 24 7 13 1012.2 1011.2 0.0
28/08:30pm 23.8 20.2 3.2 26 10.1 NE 11 24 6 13 1011.9 1010.9 0.0
28/08:00pm 22.9 21.8 5.3 32 8.9 CALM 0 2 0 1 1011.4 1010.4 0.0
28/07:30pm 24.0 22.6 3.3 26 10.2 CALM 0 0 0 0 1011.4 1010.4 0.0
28/07:00pm 25.1 22.8 2.5 23 11.1 NE 4 7 2 4 1011.2 1010.2 0.0
28/06:30pm 25.7 23.1 3.0 23 11.2 NE 6 7 3 4 1010.9 1009.9 0.0
28/06:00pm 26.9 24.5 2.1 20 12.2 NE 4 7 2 4 1011.1 1010.1 0.0
28/05:30pm 27.9 25.5 2.2 19 12.7 NE 4 11 2 6 1010.7 1009.7 0.0
28/05:00pm 28.8 25.7 1.3 17 13.5 NE 7 13 4 7 1010.5 1009.5 0.0
28/04:30pm 29.2 26.2 1.7 17 13.6 NE 7 15 4 8 1010.3 1009.3 0.0
28/04:00pm 28.7 25.0 2.1 18 13.2 NNE 11 19 6 10 1010.1 1009.2 0.0
28/03:30pm 28.4 24.6 1.8 18 13.1 NNE 11 19 6 10 1010.5 1009.5 0.0
28/03:00pm 29.5 25.7 1.9 17 13.8 N 11 20 6 11 1011.0 1010.0 0.0

Other Formats:

Comma delimited format used in spreadsheet applications
http://www.bom.gov.au/fwo/IDQ60801/IDQ60801.94395.axf

JavaScript Object Notation format (JSON) in row-major order
http://www.bom.gov.au/fwo/IDQ60801/IDQ60801.94395.json